Terminal Aerodrome Forecast
Issued by NWS

Current Version | Previous Version | Text Only | Print | Product List | Glossary On
Versions: 1 2 3 4 5 6 7 8 9 10 11 12 13 14
384
FTAK31 PAJN 261729
TAFAGY
TAF
PAGY 261729Z 2618/2718 VRB05KT P6SM -RA SCT008 BKN015 OVC050
     FM262000 21015G22KT P6SM VCSH BKN050 OVC070
     FM270600 21005KT P6SM SCT050 BKN070
      AMD LTD TO CLD VIS AND WIND=

USA.gov is the U.S. government's official web portal to all federal, state and local government web resources and services.